Amy C. Mc Allister — WCZ9520 — position and weather

sailwx.info

Track history (hours):
 
Tides and Currents Weather Stations Pressure Air Temp Water Temp Dewpoint Dewpoint Depression Visibility Wind Speed Wind Dir Waves Ship Positions

Amy C. Mc Allister

Owner: MC ALLISTER TOWING & TRANSPORTATION INC, NEW YORK, NY. More information available from US FCC via Universal Licensing System and Coast Guard Vessel Documentation Center.

Last reported at 2018-Feb-25 08:00 UTC. Time now 2018-Feb-25 08:15 UTC.
Position N 39°33' W 075°36'.

; draft 4.9 m.

Type: Towing. MMSI: 366995040.

Date/timePositionNaut miles runAvg speedWind from/ knotsBaromVisibWave heightAir tempDewpointWater temp
2018-Feb-25 08:00N 39°33' W 075°36'3 5.4
2018-Feb-25 07:30N 39°34' W 075°33'3 5.9
2018-Feb-25 07:00N 39°37' W 075°35'4 7.3
2018-Feb-25 06:30N 39°40' W 075°32'4 8.2
2018-Feb-25 06:00N 39°44' W 075°30'4 8.1
2018-Feb-25 05:30N 39°47' W 075°27'5 9.2
2018-Feb-25 05:01N 39°50' W 075°22'4 8.9
2018-Feb-25 04:31N 39°51' W 075°17'4 8.8
2018-Feb-25 04:00N 39°53' W 075°12'3 6.5
2018-Feb-25 03:30N 39°54' W 075°08'0 0.3
2018-Feb-25 03:00N 39°54' W 075°08'0 0.0
2018-Feb-25 02:31N 39°54' W 075°08'0 0.0
2018-Feb-25 02:00N 39°54' W 075°08'0 0.0
2018-Feb-25 01:30N 39°54' W 075°08'0 0.0
2018-Feb-25 01:00N 39°54' W 075°08'0 0.0
2018-Feb-25 00:30N 39°54' W 075°08'0 0.0
2018-Feb-25 00:00N 39°54' W 075°08'0 0.0
2018-Feb-24 23:30N 39°54' W 075°08'0 0.0
2018-Feb-24 23:00N 39°54' W 075°08'0 0.0
2018-Feb-24 22:30N 39°54' W 075°08'0 0.0
2018-Feb-24 22:00N 39°54' W 075°08'0 0.0
2018-Feb-24 21:30N 39°54' W 075°08'0 0.0
2018-Feb-24 21:00N 39°54' W 075°08'0 0.0
2018-Feb-24 20:30N 39°54' W 075°08'0 0.0
2018-Feb-24 20:00N 39°54' W 075°08'0 0.0
2018-Feb-24 19:30N 39°54' W 075°08'0 0.0
2018-Feb-24 19:00N 39°54' W 075°08'0 0.0
2018-Feb-24 18:30N 39°54' W 075°08'0 0.0
2018-Feb-24 18:00N 39°54' W 075°08'0 0.0
2018-Feb-24 17:30N 39°54' W 075°08'0 0.0
2018-Feb-24 17:00N 39°54' W 075°08'0 0.0
2018-Feb-24 16:30N 39°54' W 075°08'0 0.3
2018-Feb-24 16:00N 39°54' W 075°08'2 4.0
2018-Feb-24 15:30N 39°53' W 075°10'4 7.6
2018-Feb-24 15:00N 39°51' W 075°15'4 7.9
2018-Feb-24 14:27N 39°51' W 075°20'3 7.1
2018-Feb-24 14:00N 39°49' W 075°24'3 6.8
2018-Feb-24 13:30N 39°47' W 075°27'3 7.0
2018-Feb-24 13:00N 39°44' W 075°30'4 7.0
2018-Feb-24 12:30N 39°41' W 075°31'4 7.2
2018-Feb-24 12:00N 39°38' W 075°34'3 5.4
2018-Feb-24 11:30N 39°35' W 075°34'3 5.1
2018-Feb-24 11:00N 39°33' W 075°32'3 6.6
2018-Feb-24 10:30N 39°30' W 075°33'3 5.4
2018-Feb-24 10:00N 39°27' W 075°34'1 2.8
2018-Feb-24 09:30N 39°28' W 075°34'1 2.3
2018-Feb-24 09:00N 39°30' W 075°34'1 2.1
2018-Feb-24 08:30N 39°31' W 075°33'1 2.2
2018-Feb-24 08:00N 39°32' W 075°33'1 2.5
2018-Feb-24 07:30N 39°33' W 075°33'3 5.7
2018-Feb-24 07:00N 39°33' W 075°37'4 7.9
2018-Feb-24 06:30N 39°33' W 075°42'4 8.5
2018-Feb-24 06:00N 39°32' W 075°47'4 8.5
2018-Feb-24 05:30N 39°31' W 075°53'4 8.6
2018-Feb-24 05:00N 39°29' W 075°57'4 8.4
2018-Feb-24 04:30N 39°26' W 076°01'4 7.4
2018-Feb-24 04:00N 39°23' W 076°05'4 7.4
2018-Feb-24 03:28N 39°21' W 076°09'17 5.7
2018-Feb-24 00:27N 39°11' W 076°26'4 7.7
2018-Feb-23 23:59N 39°12' W 076°31'3 5.3
2018-Feb-23 23:26N 39°14' W 076°33'1 1.9
2018-Feb-23 23:00N 39°15' W 076°33'0 0.2
2018-Feb-23 22:30N 39°15' W 076°33'0 0.0
2018-Feb-23 22:00N 39°15' W 076°33'0 0.0
2018-Feb-23 21:30N 39°15' W 076°33'0 0.0
2018-Feb-23 21:00N 39°15' W 076°33'0 0.0
2018-Feb-23 20:30N 39°15' W 076°33'0 0.0
2018-Feb-23 20:00N 39°15' W 076°33'0 0.0
2018-Feb-23 19:29N 39°15' W 076°33'0 0.0
2018-Feb-23 19:00N 39°15' W 076°33'0 0.0
2018-Feb-23 18:26N 39°15' W 076°33'0 0.0
2018-Feb-23 18:00N 39°15' W 076°33'0 0.0
2018-Feb-23 17:30N 39°15' W 076°33'0 0.0
2018-Feb-23 16:59N 39°15' W 076°33'0 0.0
2018-Feb-23 16:20N 39°15' W 076°33'0 0.0
2018-Feb-23 16:00N 39°15' W 076°33'0 0.0
2018-Feb-23 15:29N 39°15' W 076°33'0 0.0
2018-Feb-23 15:00N 39°15' W 076°33'0 0.0
2018-Feb-23 14:30N 39°15' W 076°33'0 0.0
2018-Feb-23 14:00N 39°15' W 076°33'0 0.0
2018-Feb-23 13:30N 39°15' W 076°33'0 0.0
2018-Feb-23 13:00N 39°15' W 076°33'0 0.0
2018-Feb-23 12:30N 39°15' W 076°33'0 0.5
2018-Feb-23 12:00N 39°15' W 076°33'18 7.1
2018-Feb-23 09:32N 38°60' W 076°23'0 7.9
2018-Feb-23 09:29N 38°59' W 076°23'4 8.0
2018-Feb-23 09:00N 38°56' W 076°25'3 6.9
2018-Feb-23 08:30N 38°52' W 076°26'101 8.2
2018-Feb-22 20:11N 37°13' W 076°10'5 9.3
2018-Feb-22 19:41N 37°08' W 076°10'3 9.4
2018-Feb-22 19:25N 37°06' W 076°10'4 8.8
2018-Feb-22 19:00N 37°02' W 076°09'3 5.9
2018-Feb-22 18:24N 36°60' W 076°12'4 8.1
2018-Feb-22 17:57N 37°00' W 076°17'4 7.1
2018-Feb-22 17:27N 36°58' W 076°21'3 3.9
2018-Feb-22 16:48N 36°56' W 076°20'2 6.7
2018-Feb-22 16:28N 36°53' W 076°20'1 2.0
2018-Feb-22 15:59N 36°53' W 076°21'0 0.0
2018-Feb-22 15:26N 36°53' W 076°21'0 0.0
2018-Feb-22 14:57N 36°53' W 076°21'0 0.0
2018-Feb-22 14:22N 36°53' W 076°21'0 0.0
2018-Feb-22 13:57N 36°53' W 076°21'0 0.0
2018-Feb-22 13:25N 36°53' W 076°21'0 0.0
2018-Feb-22 12:59N 36°53' W 076°21'0 0.0
2018-Feb-22 12:26N 36°53' W 076°21'0 0.0
2018-Feb-22 11:57N 36°53' W 076°21'0 0.0
2018-Feb-22 11:27N 36°53' W 076°21'0 0.0
2018-Feb-22 10:59N 36°53' W 076°21'0 0.0
2018-Feb-22 10:30N 36°53' W 076°21'0 0.0
2018-Feb-22 09:43N 36°53' W 076°21'0 0.0
2018-Feb-22 09:28N 36°53' W 076°21'0 0.0
2018-Feb-22 08:59N 36°53' W 076°21'0 0.0
2018-Feb-22 08:25N 36°53' W 076°21'0 0.0
2018-Feb-22 07:41N 36°53' W 076°21'0 0.0
2018-Feb-22 07:13N 36°53' W 076°21'0 0.0
2018-Feb-22 06:56N 36°53' W 076°21'0 0.0
2018-Feb-22 06:28N 36°53' W 076°21'0 0.0
2018-Feb-22 04:50N 36°53' W 076°21'0 0.0
2018-Feb-22 04:28N 36°53' W 076°21'0 0.0
2018-Feb-22 03:52N 36°53' W 076°21'1 1.3
2018-Feb-22 03:20N 36°53' W 076°20'2 5.6
2018-Feb-22 02:58N 36°55' W 076°20'0 1.0
2018-Feb-22 02:30N 36°55' W 076°20'0 0.0
2018-Feb-22 02:00N 36°55' W 076°20'0 0.0
2018-Feb-22 01:18N 36°55' W 076°20'0 0.0
2018-Feb-22 00:58N 36°55' W 076°20'0 0.0
2018-Feb-22 00:26N 36°55' W 076°20'0 0.0
2018-Feb-21 23:54N 36°55' W 076°20'0 0.2
2018-Feb-21 23:26N 36°55' W 076°20'1 2.4
2018-Feb-21 22:57N 36°56' W 076°20'0 0.2
2018-Feb-21 22:29N 36°56' W 076°20'1 1.8
2018-Feb-21 21:57N 36°55' W 076°20'4 9.0
2018-Feb-21 21:29N 36°51' W 076°18'1 2.0
2018-Feb-21 21:00N 36°50' W 076°17'0 0.0
2018-Feb-21 20:29N 36°50' W 076°17'0 0.0
2018-Feb-21 19:58N 36°50' W 076°17'0 0.0
2018-Feb-21 19:30N 36°50' W 076°17'0 0.0
2018-Feb-21 18:59N 36°50' W 076°17'0 0.0
2018-Feb-21 18:10N 36°50' W 076°17'0 0.0
2018-Feb-21 18:00N 36°50' W 076°17'0 0.0
2018-Feb-21 17:30N 36°50' W 076°17'0 0.0
2018-Feb-21 16:16N 36°50' W 076°17'0 0.0
2018-Feb-21 16:00N 36°50' W 076°17'0 0.0
2018-Feb-21 15:14N 36°50' W 076°17'0 0.0
2018-Feb-21 15:00N 36°50' W 076°17'0 0.0
2018-Feb-21 14:30N 36°50' W 076°17'0 0.0
2018-Feb-21 13:59N 36°50' W 076°17'0 0.0
2018-Feb-21 13:30N 36°50' W 076°17'0 0.1
2018-Feb-21 13:00N 36°50' W 076°17'3 6.2
2018-Feb-21 12:30N 36°47' W 076°18'1 1.4
2018-Feb-21 12:00N 36°47' W 076°18'0 0.7
2018-Feb-21 11:30N 36°47' W 076°18'1 2.9
2018-Feb-21 11:01N 36°48' W 076°18'2 4.1
2018-Feb-21 10:30N 36°50' W 076°18'1 2.6
2018-Feb-21 09:59N 36°51' W 076°18'1 2.5
2018-Feb-21 09:30N 36°50' W 076°17'0 0.0
2018-Feb-21 08:59N 36°50' W 076°17'0 0.0
2018-Feb-21 08:30N 36°50' W 076°17'0 0.0
2018-Feb-21 08:00N 36°50' W 076°17'0 0.0
2018-Feb-21 07:30N 36°50' W 076°17'0 0.0
2018-Feb-21 07:00N 36°50' W 076°17'0 0.0
2018-Feb-21 06:29N 36°50' W 076°17'0 0.0
2018-Feb-21 06:00N 36°50' W 076°17'0 0.0
2018-Feb-21 05:30N 36°50' W 076°17'0 0.0
2018-Feb-21 05:00N 36°50' W 076°17'0 0.0
2018-Feb-21 04:30N 36°50' W 076°17'0 0.0
2018-Feb-21 04:00N 36°50' W 076°17'0 0.0
2018-Feb-21 03:30N 36°50' W 076°17'0 0.0
2018-Feb-21 02:55N 36°50' W 076°17'0 0.0
2018-Feb-21 02:26N 36°50' W 076°17'0 0.0
2018-Feb-21 02:00N 36°50' W 076°17'0 0.0
2018-Feb-21 01:17N 36°50' W 076°17'0 0.0
2018-Feb-21 01:00N 36°50' W 076°17'6 4.4
2018-Feb-20 23:40N 36°56' W 076°20'0 2.6
2018-Feb-20 23:29N 36°55' W 076°20'1 1.7
2018-Feb-20 22:57N 36°55' W 076°20'0 0.0
2018-Feb-20 22:30N 36°55' W 076°20'0 0.0
2018-Feb-20 21:57N 36°55' W 076°20'0 0.0
2018-Feb-20 21:29N 36°55' W 076°20'0 0.0
2018-Feb-20 21:00N 36°55' W 076°20'0 0.0
2018-Feb-20 20:31N 36°55' W 076°20'0 0.0
2018-Feb-20 20:00N 36°55' W 076°20'0 0.0
2018-Feb-20 19:29N 36°55' W 076°20'0 0.1
2018-Feb-20 19:00N 36°55' W 076°20'0 0.0
2018-Feb-20 18:30N 36°55' W 076°20'0 0.0
2018-Feb-20 18:00N 36°55' W 076°20'0 0.0
2018-Feb-20 17:27N 36°55' W 076°20'0 0.0
2018-Feb-20 17:00N 36°55' W 076°20'0 0.0
2018-Feb-20 16:30N 36°55' W 076°20'0 0.0
2018-Feb-20 15:58N 36°55' W 076°20'0 0.0
2018-Feb-20 15:30N 36°55' W 076°20'0 0.0
2018-Feb-20 15:00N 36°55' W 076°20'0 0.0
2018-Feb-20 14:29N 36°55' W 076°20'0 0.0
2018-Feb-20 13:59N 36°55' W 076°20'0 0.0
2018-Feb-20 13:29N 36°55' W 076°20'0 0.0
2018-Feb-20 13:00N 36°55' W 076°20'0 0.0
2018-Feb-20 12:30N 36°55' W 076°20'0 0.0
2018-Feb-20 12:00N 36°55' W 076°20'2 4.1
2018-Feb-20 11:27N 36°52' W 076°21'1 1.4
2018-Feb-20 11:00N 36°53' W 076°20'3 5.9
2018-Feb-20 10:29N 36°56' W 076°20'1 1.7
2018-Feb-20 09:56N 36°55' W 076°20'1 1.4
2018-Feb-20 09:30N 36°55' W 076°20'0 0.0
2018-Feb-20 08:59N 36°55' W 076°20'0 0.0
2018-Feb-20 08:30N 36°55' W 076°20'0 0.0
2018-Feb-20 08:00N 36°55' W 076°20'0 0.0
2018-Feb-20 07:30N 36°55' W 076°20'0 0.0
2018-Feb-20 06:59N 36°55' W 076°20'0 0.0
2018-Feb-20 06:30N 36°55' W 076°20'0 0.0
2018-Feb-20 06:00N 36°55' W 076°20'0 0.0
2018-Feb-20 05:30N 36°55' W 076°20'0 0.0
2018-Feb-20 05:00N 36°55' W 076°20'0 0.0
2018-Feb-20 04:30N 36°55' W 076°20'0 0.0
2018-Feb-20 03:59N 36°55' W 076°20'1 2.4
2018-Feb-20 03:28N 36°56' W 076°20'0 0.4
2018-Feb-20 02:32N 36°56' W 076°20'0 0.1
2018-Feb-20 02:22N 36°56' W 076°20'0 0.0
2018-Feb-20 02:00N 36°56' W 076°20'3 6.4
2018-Feb-20 01:30N 36°53' W 076°20'3 5.8
2018-Feb-20 01:00N 36°51' W 076°18'0 0.6
2018-Feb-20 00:30N 36°50' W 076°17'0 0.0
2018-Feb-19 23:47N 36°50' W 076°17'0 0.0
2018-Feb-19 23:30N 36°50' W 076°17'0 0.0
2018-Feb-19 22:55N 36°50' W 076°17'0 0.0
2018-Feb-19 22:23N 36°50' W 076°17'0 0.0
2018-Feb-19 22:00N 36°50' W 076°17'0 0.0
2018-Feb-19 21:25N 36°50' W 076°17'0 0.0
2018-Feb-19 20:59N 36°50' W 076°17'0 0.0
2018-Feb-19 20:30N 36°50' W 076°17'0 0.0
2018-Feb-19 20:00N 36°50' W 076°17'0 0.0
2018-Feb-19 19:30N 36°50' W 076°17'0 0.0
2018-Feb-19 19:00N 36°50' W 076°17'0 0.0
2018-Feb-19 18:30N 36°50' W 076°17'0 0.0
2018-Feb-19 17:59N 36°50' W 076°17'0 0.0
2018-Feb-19 17:30N 36°50' W 076°17'0 0.0
2018-Feb-19 17:00N 36°50' W 076°17'0 0.0
2018-Feb-19 16:30N 36°50' W 076°17'0 0.0
2018-Feb-19 16:00N 36°50' W 076°17'0 0.0
2018-Feb-19 15:30N 36°50' W 076°17'0 0.0
2018-Feb-19 15:00N 36°50' W 076°17'0 0.0
2018-Feb-19 14:30N 36°50' W 076°17'0 0.0
2018-Feb-19 13:59N 36°50' W 076°17'0 0.0
2018-Feb-19 13:30N 36°50' W 076°17'0 0.0
2018-Feb-19 13:00N 36°50' W 076°17'0 0.0
2018-Feb-19 12:31N 36°50' W 076°17'0 0.0
2018-Feb-19 12:01N 36°50' W 076°17'0 0.0
2018-Feb-19 11:31N 36°50' W 076°17'0 0.0
2018-Feb-19 11:00N 36°50' W 076°17'0 0.0
2018-Feb-19 10:31N 36°50' W 076°17'0 0.0
2018-Feb-19 10:01N 36°50' W 076°17'0 0.0
2018-Feb-19 09:30N 36°50' W 076°17'0 0.0
2018-Feb-19 09:01N 36°50' W 076°17'0 0.0
2018-Feb-19 08:31N 36°50' W 076°17'0 0.0
2018-Feb-19 08:00N 36°50' W 076°17'0 0.0
2018-Feb-19 07:31N 36°50' W 076°17'0 0.0
2018-Feb-19 07:00N 36°50' W 076°17'0 0.0
2018-Feb-19 06:30N 36°50' W 076°17'0 0.0
2018-Feb-19 06:00N 36°50' W 076°17'0 0.0
2018-Feb-19 05:31N 36°50' W 076°17'0 0.0
2018-Feb-19 05:00N 36°50' W 076°17'0 0.0
2018-Feb-19 04:30N 36°50' W 076°17'0 0.0
2018-Feb-19 04:00N 36°50' W 076°17'0 0.0
2018-Feb-19 03:30N 36°50' W 076°17'0 0.0
2018-Feb-19 03:00N 36°50' W 076°17'0 0.0
2018-Feb-19 02:31N 36°50' W 076°17'1 2.1
2018-Feb-19 02:00N 36°51' W 076°18'5 9.0
2018-Feb-19 01:28N 36°56' W 076°20'0 0.5
2018-Feb-19 00:51N 36°56' W 076°20'0 1.0
2018-Feb-19 00:27N 36°56' W 076°20'3 5.4
2018-Feb-18 23:57N 36°59' W 076°20'0 0.8
2018-Feb-18 23:26N 36°59' W 076°20'3 7.4
2018-Feb-18 22:58N 37°00' W 076°16'3 6.9
2018-Feb-18 22:30N 37°00' W 076°12'6 6.3
2018-Feb-18 21:31N 37°06' W 076°10'5 9.7
2018-Feb-18 20:57N 37°12' W 076°10'96 8.9
2018-Feb-18 10:11N 38°47' W 076°27'1 8.6
2018-Feb-18 10:01N 38°48' W 076°26'4 8.6
2018-Feb-18 09:30N 38°53' W 076°25'4 7.6
2018-Feb-18 09:01N 38°56' W 076°24'4 7.7
2018-Feb-18 08:30N 38°60' W 076°23'23 9.1
2018-Feb-18 05:59N 39°21' W 076°11'5 9.9
2018-Feb-18 05:30N 39°23' W 076°05'5 9.2
2018-Feb-18 05:00N 39°26' W 076°01'5 8.7
2018-Feb-18 04:29N 39°29' W 075°57'4 7.8
2018-Feb-18 04:00N 39°31' W 075°53'4 7.1
2018-Feb-18 03:30N 39°32' W 075°48'4 7.1
2018-Feb-18 03:00N 39°33' W 075°44'3 6.8
2018-Feb-18 02:31N 39°33' W 075°39'3 7.0
2018-Feb-18 02:01N 39°34' W 075°35'2 4.8
2018-Feb-18 01:31N 39°36' W 075°34'4 7.4
2018-Feb-18 01:00N 39°39' W 075°33'5 9.0
2018-Feb-18 00:31N 39°44' W 075°30'4 9.0
2018-Feb-18 00:00N 39°47' W 075°27'5 9.4
2018-Feb-17 23:30N 39°50' W 075°22'510.0
2018-Feb-17 23:01N 39°51' W 075°16'5 9.5
2018-Feb-17 22:31N 39°53' W 075°10'2 4.0
2018-Feb-17 22:00N 39°54' W 075°08'0 0.3
2018-Feb-17 21:31N 39°54' W 075°08'0 0.0
2018-Feb-17 21:00N 39°54' W 075°08'0 0.0
2018-Feb-17 20:31N 39°54' W 075°08'0 0.0
2018-Feb-17 20:00N 39°54' W 075°08'0 0.0
2018-Feb-17 19:30N 39°54' W 075°08'0 0.0
2018-Feb-17 19:01N 39°54' W 075°08'0 0.0
2018-Feb-17 18:30N 39°54' W 075°08'0 0.0
2018-Feb-17 18:01N 39°54' W 075°08'0 0.0
2018-Feb-17 17:31N 39°54' W 075°08'0 0.4
2018-Feb-17 17:01N 39°54' W 075°08'2 4.0
2018-Feb-17 16:31N 39°53' W 075°10'4 8.1
2018-Feb-17 16:00N 39°51' W 075°15'4 8.3
2018-Feb-17 15:31N 39°51' W 075°20'5 9.3
2018-Feb-17 15:01N 39°48' W 075°25'4 8.9
2018-Feb-17 14:30N 39°45' W 075°29'4 8.6
2018-Feb-17 14:00N 39°41' W 075°31'4 8.2
2018-Feb-17 13:30N 39°38' W 075°34'4 7.9
2018-Feb-17 13:01N 39°34' W 075°33'4 8.0
2018-Feb-17 12:30N 39°33' W 075°38'4 8.4
2018-Feb-17 12:00N 39°33' W 075°43'36 7.7
2018-Feb-17 07:24N 39°10' W 076°19'3 7.0
2018-Feb-17 07:00N 39°10' W 076°22'4 8.5
2018-Feb-17 06:30N 39°11' W 076°27'4 8.6
2018-Feb-17 06:00N 39°13' W 076°32'2 4.4
2018-Feb-17 05:30N 39°15' W 076°33'0 0.1
2018-Feb-17 05:01N 39°15' W 076°33'0 0.0
2018-Feb-17 04:31N 39°15' W 076°33'0 0.0
2018-Feb-17 04:00N 39°15' W 076°33'0 0.0
2018-Feb-17 03:31N 39°15' W 076°33'0 0.0
2018-Feb-17 03:00N 39°15' W 076°33'0 0.0
2018-Feb-17 02:30N 39°15' W 076°33'0 0.0
2018-Feb-17 02:00N 39°15' W 076°33'0 0.0
2018-Feb-17 01:30N 39°15' W 076°33'0 0.0
2018-Feb-17 01:01N 39°15' W 076°33'0 0.2
2018-Feb-17 00:31N 39°15' W 076°33'0 0.2
2018-Feb-17 00:00N 39°15' W 076°33'0 0.0
2018-Feb-16 23:30N 39°15' W 076°33'0 0.0
2018-Feb-16 23:00N 39°15' W 076°33'0 0.0
2018-Feb-16 22:31N 39°15' W 076°33'0 0.0
2018-Feb-16 22:01N 39°15' W 076°33'0 0.0
2018-Feb-16 21:31N 39°15' W 076°33'0 0.0
2018-Feb-16 21:01N 39°15' W 076°33'0 0.0
2018-Feb-16 20:31N 39°15' W 076°33'0 0.0
2018-Feb-16 20:01N 39°15' W 076°33'0 0.0
2018-Feb-16 19:31N 39°15' W 076°33'0 0.0
2018-Feb-16 19:00N 39°15' W 076°33'0 0.0
2018-Feb-16 18:31N 39°15' W 076°33'0 0.0
2018-Feb-16 18:01N 39°15' W 076°33'0 0.0
2018-Feb-16 17:31N 39°15' W 076°33'0 0.0
2018-Feb-16 17:01N 39°15' W 076°33'0 0.0
2018-Feb-16 16:31N 39°15' W 076°33'0 0.0
2018-Feb-16 16:00N 39°15' W 076°33'0 0.0
2018-Feb-16 15:31N 39°15' W 076°33'0 0.0
2018-Feb-16 15:01N 39°15' W 076°33'0 0.0
2018-Feb-16 14:30N 39°15' W 076°33'0 0.0
2018-Feb-16 14:01N 39°15' W 076°33'0 0.0
2018-Feb-16 13:31N 39°15' W 076°33'0 0.0
2018-Feb-16 13:01N 39°15' W 076°33'0 0.0
2018-Feb-16 12:31N 39°15' W 076°33'0 0.0
2018-Feb-16 12:00N 39°15' W 076°33'0 0.0
2018-Feb-16 11:29N 39°15' W 076°33'0 0.0
2018-Feb-16 11:01N 39°15' W 076°33'0 0.0
2018-Feb-16 10:30N 39°15' W 076°33'0 0.0
2018-Feb-16 10:01N 39°15' W 076°33'0 0.0
2018-Feb-16 09:31N 39°15' W 076°33'0 0.0
2018-Feb-16 09:01N 39°15' W 076°33'0 0.0
2018-Feb-16 08:30N 39°15' W 076°33'0 0.0
2018-Feb-16 08:01N 39°15' W 076°33'0 0.0
2018-Feb-16 07:30N 39°15' W 076°33'0 0.0
2018-Feb-16 07:01N 39°15' W 076°33'0 0.0
2018-Feb-16 06:30N 39°15' W 076°33'0 0.0
2018-Feb-16 06:01N 39°15' W 076°33'0 0.0
2018-Feb-16 05:30N 39°15' W 076°33'0 0.0
2018-Feb-16 05:01N 39°15' W 076°33'0 0.0
2018-Feb-16 04:31N 39°15' W 076°33'0 0.0
2018-Feb-16 04:00N 39°15' W 076°33'0 0.2
2018-Feb-16 03:31N 39°15' W 076°33'0 0.2
2018-Feb-16 03:00N 39°15' W 076°33'0 0.0
2018-Feb-16 02:30N 39°15' W 076°33'0 0.0
2018-Feb-16 02:01N 39°15' W 076°33'0 0.0
2018-Feb-16 01:31N 39°15' W 076°33'0 0.0
2018-Feb-16 01:01N 39°15' W 076°33'0 0.0
2018-Feb-16 00:31N 39°15' W 076°33'0 0.0
2018-Feb-16 00:00N 39°15' W 076°33'1 2.3
2018-Feb-15 23:30N 39°14' W 076°33'4 8.0
2018-Feb-15 23:00N 39°12' W 076°29'13 6.6
2018-Feb-15 21:04N 38°60' W 076°23'8 8.3
2018-Feb-15 20:07N 38°52' W 076°25'1 8.1
2018-Feb-15 20:01N 38°51' W 076°25'  
Track history (hours):
 
Tides and Currents Weather Stations Pressure Air Temp Water Temp Dewpoint Dewpoint Depression Visibility Wind Speed Wind Dir Waves Ship Positions

Amy C. Mc Allister

Owner: MC ALLISTER TOWING & TRANSPORTATION INC, NEW YORK, NY. More information available from US FCC via Universal Licensing System and Coast Guard Vessel Documentation Center.

Last reported at 2018-Feb-25 08:00 UTC. Time now 2018-Feb-25 08:15 UTC.
Position N 39°33' W 075°36'.

; draft 4.9 m.

Type: Towing. MMSI: 366995040.

Date/timePositionNaut miles runAvg speedWind from/ knotsBaromVisibWave heightAir tempDewpointWater temp
2018-Feb-25 08:00N 39°33' W 075°36'3 5.4
2018-Feb-25 07:30N 39°34' W 075°33'3 5.9
2018-Feb-25 07:00N 39°37' W 075°35'4 7.3
2018-Feb-25 06:30N 39°40' W 075°32'4 8.2
2018-Feb-25 06:00N 39°44' W 075°30'4 8.1
2018-Feb-25 05:30N 39°47' W 075°27'5 9.2
2018-Feb-25 05:01N 39°50' W 075°22'4 8.9
2018-Feb-25 04:31N 39°51' W 075°17'4 8.8
2018-Feb-25 04:00N 39°53' W 075°12'3 6.5
2018-Feb-25 03:30N 39°54' W 075°08'0 0.3
2018-Feb-25 03:00N 39°54' W 075°08'0 0.0
2018-Feb-25 02:31N 39°54' W 075°08'0 0.0
2018-Feb-25 02:00N 39°54' W 075°08'0 0.0
2018-Feb-25 01:30N 39°54' W 075°08'0 0.0
2018-Feb-25 01:00N 39°54' W 075°08'0 0.0
2018-Feb-25 00:30N 39°54' W 075°08'0 0.0
2018-Feb-25 00:00N 39°54' W 075°08'0 0.0
2018-Feb-24 23:30N 39°54' W 075°08'0 0.0
2018-Feb-24 23:00N 39°54' W 075°08'0 0.0
2018-Feb-24 22:30N 39°54' W 075°08'0 0.0
2018-Feb-24 22:00N 39°54' W 075°08'0 0.0
2018-Feb-24 21:30N 39°54' W 075°08'0 0.0
2018-Feb-24 21:00N 39°54' W 075°08'0 0.0
2018-Feb-24 20:30N 39°54' W 075°08'0 0.0
2018-Feb-24 20:00N 39°54' W 075°08'0 0.0
2018-Feb-24 19:30N 39°54' W 075°08'0 0.0
2018-Feb-24 19:00N 39°54' W 075°08'0 0.0
2018-Feb-24 18:30N 39°54' W 075°08'0 0.0
2018-Feb-24 18:00N 39°54' W 075°08'0 0.0
2018-Feb-24 17:30N 39°54' W 075°08'0 0.0
2018-Feb-24 17:00N 39°54' W 075°08'0 0.0
2018-Feb-24 16:30N 39°54' W 075°08'0 0.3
2018-Feb-24 16:00N 39°54' W 075°08'2 4.0
2018-Feb-24 15:30N 39°53' W 075°10'4 7.6
2018-Feb-24 15:00N 39°51' W 075°15'4 7.9
2018-Feb-24 14:27N 39°51' W 075°20'3 7.1
2018-Feb-24 14:00N 39°49' W 075°24'3 6.8
2018-Feb-24 13:30N 39°47' W 075°27'3 7.0
2018-Feb-24 13:00N 39°44' W 075°30'4 7.0
2018-Feb-24 12:30N 39°41' W 075°31'4 7.2
2018-Feb-24 12:00N 39°38' W 075°34'3 5.4
2018-Feb-24 11:30N 39°35' W 075°34'3 5.1
2018-Feb-24 11:00N 39°33' W 075°32'3 6.6
2018-Feb-24 10:30N 39°30' W 075°33'3 5.4
2018-Feb-24 10:00N 39°27' W 075°34'1 2.8
2018-Feb-24 09:30N 39°28' W 075°34'1 2.3
2018-Feb-24 09:00N 39°30' W 075°34'1 2.1
2018-Feb-24 08:30N 39°31' W 075°33'1 2.2
2018-Feb-24 08:00N 39°32' W 075°33'1 2.5
2018-Feb-24 07:30N 39°33' W 075°33'3 5.7
2018-Feb-24 07:00N 39°33' W 075°37'4 7.9
2018-Feb-24 06:30N 39°33' W 075°42'4 8.5
2018-Feb-24 06:00N 39°32' W 075°47'4 8.5
2018-Feb-24 05:30N 39°31' W 075°53'4 8.6
2018-Feb-24 05:00N 39°29' W 075°57'4 8.4
2018-Feb-24 04:30N 39°26' W 076°01'4 7.4
2018-Feb-24 04:00N 39°23' W 076°05'4 7.4
2018-Feb-24 03:28N 39°21' W 076°09'17 5.7
2018-Feb-24 00:27N 39°11' W 076°26'4 7.7
2018-Feb-23 23:59N 39°12' W 076°31'3 5.3
2018-Feb-23 23:26N 39°14' W 076°33'1 1.9
2018-Feb-23 23:00N 39°15' W 076°33'0 0.2
2018-Feb-23 22:30N 39°15' W 076°33'0 0.0
2018-Feb-23 22:00N 39°15' W 076°33'0 0.0
2018-Feb-23 21:30N 39°15' W 076°33'0 0.0
2018-Feb-23 21:00N 39°15' W 076°33'0 0.0
2018-Feb-23 20:30N 39°15' W 076°33'0 0.0
2018-Feb-23 20:00N 39°15' W 076°33'0 0.0
2018-Feb-23 19:29N 39°15' W 076°33'0 0.0
2018-Feb-23 19:00N 39°15' W 076°33'0 0.0
2018-Feb-23 18:26N 39°15' W 076°33'0 0.0
2018-Feb-23 18:00N 39°15' W 076°33'0 0.0
2018-Feb-23 17:30N 39°15' W 076°33'0 0.0
2018-Feb-23 16:59N 39°15' W 076°33'0 0.0
2018-Feb-23 16:20N 39°15' W 076°33'0 0.0
2018-Feb-23 16:00N 39°15' W 076°33'0 0.0
2018-Feb-23 15:29N 39°15' W 076°33'0 0.0
2018-Feb-23 15:00N 39°15' W 076°33'0 0.0
2018-Feb-23 14:30N 39°15' W 076°33'0 0.0
2018-Feb-23 14:00N 39°15' W 076°33'0 0.0
2018-Feb-23 13:30N 39°15' W 076°33'0 0.0
2018-Feb-23 13:00N 39°15' W 076°33'0 0.0
2018-Feb-23 12:30N 39°15' W 076°33'0 0.5
2018-Feb-23 12:00N 39°15' W 076°33'18 7.1
2018-Feb-23 09:32N 38°60' W 076°23'0 7.9
2018-Feb-23 09:29N 38°59' W 076°23'4 8.0
2018-Feb-23 09:00N 38°56' W 076°25'3 6.9
2018-Feb-23 08:30N 38°52' W 076°26'101 8.2
2018-Feb-22 20:11N 37°13' W 076°10'5 9.3
2018-Feb-22 19:41N 37°08' W 076°10'3 9.4
2018-Feb-22 19:25N 37°06' W 076°10'4 8.8
2018-Feb-22 19:00N 37°02' W 076°09'3 5.9
2018-Feb-22 18:24N 36°60' W 076°12'4 8.1
2018-Feb-22 17:57N 37°00' W 076°17'4 7.1
2018-Feb-22 17:27N 36°58' W 076°21'3 3.9
2018-Feb-22 16:48N 36°56' W 076°20'2 6.7
2018-Feb-22 16:28N 36°53' W 076°20'1 2.0
2018-Feb-22 15:59N 36°53' W 076°21'0 0.0
2018-Feb-22 15:26N 36°53' W 076°21'0 0.0
2018-Feb-22 14:57N 36°53' W 076°21'0 0.0
2018-Feb-22 14:22N 36°53' W 076°21'0 0.0
2018-Feb-22 13:57N 36°53' W 076°21'0 0.0
2018-Feb-22 13:25N 36°53' W 076°21'0 0.0
2018-Feb-22 12:59N 36°53' W 076°21'0 0.0
2018-Feb-22 12:26N 36°53' W 076°21'0 0.0
2018-Feb-22 11:57N 36°53' W 076°21'0 0.0
2018-Feb-22 11:27N 36°53' W 076°21'0 0.0
2018-Feb-22 10:59N 36°53' W 076°21'0 0.0
2018-Feb-22 10:30N 36°53' W 076°21'0 0.0
2018-Feb-22 09:43N 36°53' W 076°21'0 0.0
2018-Feb-22 09:28N 36°53' W 076°21'0 0.0
2018-Feb-22 08:59N 36°53' W 076°21'0 0.0
2018-Feb-22 08:25N 36°53' W 076°21'0 0.0
2018-Feb-22 07:41N 36°53' W 076°21'0 0.0
2018-Feb-22 07:13N 36°53' W 076°21'0 0.0
2018-Feb-22 06:56N 36°53' W 076°21'0 0.0
2018-Feb-22 06:28N 36°53' W 076°21'0 0.0
2018-Feb-22 04:50N 36°53' W 076°21'0 0.0
2018-Feb-22 04:28N 36°53' W 076°21'0 0.0
2018-Feb-22 03:52N 36°53' W 076°21'1 1.3
2018-Feb-22 03:20N 36°53' W 076°20'2 5.6
2018-Feb-22 02:58N 36°55' W 076°20'0 1.0
2018-Feb-22 02:30N 36°55' W 076°20'0 0.0
2018-Feb-22 02:00N 36°55' W 076°20'0 0.0
2018-Feb-22 01:18N 36°55' W 076°20'0 0.0
2018-Feb-22 00:58N 36°55' W 076°20'0 0.0
2018-Feb-22 00:26N 36°55' W 076°20'0 0.0
2018-Feb-21 23:54N 36°55' W 076°20'0 0.2
2018-Feb-21 23:26N 36°55' W 076°20'1 2.4
2018-Feb-21 22:57N 36°56' W 076°20'0 0.2
2018-Feb-21 22:29N 36°56' W 076°20'1 1.8
2018-Feb-21 21:57N 36°55' W 076°20'4 9.0
2018-Feb-21 21:29N 36°51' W 076°18'1 2.0
2018-Feb-21 21:00N 36°50' W 076°17'0 0.0
2018-Feb-21 20:29N 36°50' W 076°17'0 0.0
2018-Feb-21 19:58N 36°50' W 076°17'0 0.0
2018-Feb-21 19:30N 36°50' W 076°17'0 0.0
2018-Feb-21 18:59N 36°50' W 076°17'0 0.0
2018-Feb-21 18:10N 36°50' W 076°17'0 0.0
2018-Feb-21 18:00N 36°50' W 076°17'0 0.0
2018-Feb-21 17:30N 36°50' W 076°17'0 0.0
2018-Feb-21 16:16N 36°50' W 076°17'0 0.0
2018-Feb-21 16:00N 36°50' W 076°17'0 0.0
2018-Feb-21 15:14N 36°50' W 076°17'0 0.0
2018-Feb-21 15:00N 36°50' W 076°17'0 0.0
2018-Feb-21 14:30N 36°50' W 076°17'0 0.0
2018-Feb-21 13:59N 36°50' W 076°17'0 0.0
2018-Feb-21 13:30N 36°50' W 076°17'0 0.1
2018-Feb-21 13:00N 36°50' W 076°17'3 6.2
2018-Feb-21 12:30N 36°47' W 076°18'1 1.4
2018-Feb-21 12:00N 36°47' W 076°18'0 0.7
2018-Feb-21 11:30N 36°47' W 076°18'1 2.9
2018-Feb-21 11:01N 36°48' W 076°18'2 4.1
2018-Feb-21 10:30N 36°50' W 076°18'1 2.6
2018-Feb-21 09:59N 36°51' W 076°18'1 2.5
2018-Feb-21 09:30N 36°50' W 076°17'0 0.0
2018-Feb-21 08:59N 36°50' W 076°17'0 0.0
2018-Feb-21 08:30N 36°50' W 076°17'0 0.0
2018-Feb-21 08:00N 36°50' W 076°17'0 0.0
2018-Feb-21 07:30N 36°50' W 076°17'0 0.0
2018-Feb-21 07:00N 36°50' W 076°17'0 0.0
2018-Feb-21 06:29N 36°50' W 076°17'0 0.0
2018-Feb-21 06:00N 36°50' W 076°17'0 0.0
2018-Feb-21 05:30N 36°50' W 076°17'0 0.0
2018-Feb-21 05:00N 36°50' W 076°17'0 0.0
2018-Feb-21 04:30N 36°50' W 076°17'0 0.0
2018-Feb-21 04:00N 36°50' W 076°17'0 0.0
2018-Feb-21 03:30N 36°50' W 076°17'0 0.0
2018-Feb-21 02:55N 36°50' W 076°17'0 0.0
2018-Feb-21 02:26N 36°50' W 076°17'0 0.0
2018-Feb-21 02:00N 36°50' W 076°17'0 0.0
2018-Feb-21 01:17N 36°50' W 076°17'0 0.0
2018-Feb-21 01:00N 36°50' W 076°17'6 4.4
2018-Feb-20 23:40N 36°56' W 076°20'0 2.6
2018-Feb-20 23:29N 36°55' W 076°20'1 1.7
2018-Feb-20 22:57N 36°55' W 076°20'0 0.0
2018-Feb-20 22:30N 36°55' W 076°20'0 0.0
2018-Feb-20 21:57N 36°55' W 076°20'0 0.0
2018-Feb-20 21:29N 36°55' W 076°20'0 0.0
2018-Feb-20 21:00N 36°55' W 076°20'0 0.0
2018-Feb-20 20:31N 36°55' W 076°20'0 0.0
2018-Feb-20 20:00N 36°55' W 076°20'0 0.0
2018-Feb-20 19:29N 36°55' W 076°20'0 0.1
2018-Feb-20 19:00N 36°55' W 076°20'0 0.0
2018-Feb-20 18:30N 36°55' W 076°20'0 0.0
2018-Feb-20 18:00N 36°55' W 076°20'0 0.0
2018-Feb-20 17:27N 36°55' W 076°20'0 0.0
2018-Feb-20 17:00N 36°55' W 076°20'0 0.0
2018-Feb-20 16:30N 36°55' W 076°20'0 0.0
2018-Feb-20 15:58N 36°55' W 076°20'0 0.0
2018-Feb-20 15:30N 36°55' W 076°20'0 0.0
2018-Feb-20 15:00N 36°55' W 076°20'0 0.0
2018-Feb-20 14:29N 36°55' W 076°20'0 0.0
2018-Feb-20 13:59N 36°55' W 076°20'0 0.0
2018-Feb-20 13:29N 36°55' W 076°20'0 0.0
2018-Feb-20 13:00N 36°55' W 076°20'0 0.0
2018-Feb-20 12:30N 36°55' W 076°20'0 0.0
2018-Feb-20 12:00N 36°55' W 076°20'2 4.1
2018-Feb-20 11:27N 36°52' W 076°21'1 1.4
2018-Feb-20 11:00N 36°53' W 076°20'3 5.9
2018-Feb-20 10:29N 36°56' W 076°20'1 1.7
2018-Feb-20 09:56N 36°55' W 076°20'1 1.4
2018-Feb-20 09:30N 36°55' W 076°20'0 0.0
2018-Feb-20 08:59N 36°55' W 076°20'0 0.0
2018-Feb-20 08:30N 36°55' W 076°20'0 0.0
2018-Feb-20 08:00N 36°55' W 076°20'0 0.0
2018-Feb-20 07:30N 36°55' W 076°20'0 0.0
2018-Feb-20 06:59N 36°55' W 076°20'0 0.0
2018-Feb-20 06:30N 36°55' W 076°20'0 0.0
2018-Feb-20 06:00N 36°55' W 076°20'0 0.0
2018-Feb-20 05:30N 36°55' W 076°20'0 0.0
2018-Feb-20 05:00N 36°55' W 076°20'0 0.0
2018-Feb-20 04:30N 36°55' W 076°20'0 0.0
2018-Feb-20 03:59N 36°55' W 076°20'1 2.4
2018-Feb-20 03:28N 36°56' W 076°20'0 0.4
2018-Feb-20 02:32N 36°56' W 076°20'0 0.1
2018-Feb-20 02:22N 36°56' W 076°20'0 0.0
2018-Feb-20 02:00N 36°56' W 076°20'3 6.4
2018-Feb-20 01:30N 36°53' W 076°20'3 5.8
2018-Feb-20 01:00N 36°51' W 076°18'0 0.6
2018-Feb-20 00:30N 36°50' W 076°17'0 0.0
2018-Feb-19 23:47N 36°50' W 076°17'0 0.0
2018-Feb-19 23:30N 36°50' W 076°17'0 0.0
2018-Feb-19 22:55N 36°50' W 076°17'0 0.0
2018-Feb-19 22:23N 36°50' W 076°17'0 0.0
2018-Feb-19 22:00N 36°50' W 076°17'0 0.0
2018-Feb-19 21:25N 36°50' W 076°17'0 0.0
2018-Feb-19 20:59N 36°50' W 076°17'0 0.0
2018-Feb-19 20:30N 36°50' W 076°17'0 0.0
2018-Feb-19 20:00N 36°50' W 076°17'0 0.0
2018-Feb-19 19:30N 36°50' W 076°17'0 0.0
2018-Feb-19 19:00N 36°50' W 076°17'0 0.0
2018-Feb-19 18:30N 36°50' W 076°17'0 0.0
2018-Feb-19 17:59N 36°50' W 076°17'0 0.0
2018-Feb-19 17:30N 36°50' W 076°17'0 0.0
2018-Feb-19 17:00N 36°50' W 076°17'0 0.0
2018-Feb-19 16:30N 36°50' W 076°17'0 0.0
2018-Feb-19 16:00N 36°50' W 076°17'0 0.0
2018-Feb-19 15:30N 36°50' W 076°17'0 0.0
2018-Feb-19 15:00N 36°50' W 076°17'0 0.0
2018-Feb-19 14:30N 36°50' W 076°17'0 0.0
2018-Feb-19 13:59N 36°50' W 076°17'0 0.0
2018-Feb-19 13:30N 36°50' W 076°17'0 0.0
2018-Feb-19 13:00N 36°50' W 076°17'0 0.0
2018-Feb-19 12:31N 36°50' W 076°17'0 0.0
2018-Feb-19 12:01N 36°50' W 076°17'0 0.0
2018-Feb-19 11:31N 36°50' W 076°17'0 0.0
2018-Feb-19 11:00N 36°50' W 076°17'0 0.0
2018-Feb-19 10:31N 36°50' W 076°17'0 0.0
2018-Feb-19 10:01N 36°50' W 076°17'0 0.0
2018-Feb-19 09:30N 36°50' W 076°17'0 0.0
2018-Feb-19 09:01N 36°50' W 076°17'0 0.0
2018-Feb-19 08:31N 36°50' W 076°17'0 0.0
2018-Feb-19 08:00N 36°50' W 076°17'0 0.0
2018-Feb-19 07:31N 36°50' W 076°17'0 0.0
2018-Feb-19 07:00N 36°50' W 076°17'0 0.0
2018-Feb-19 06:30N 36°50' W 076°17'0 0.0
2018-Feb-19 06:00N 36°50' W 076°17'0 0.0
2018-Feb-19 05:31N 36°50' W 076°17'0 0.0
2018-Feb-19 05:00N 36°50' W 076°17'0 0.0
2018-Feb-19 04:30N 36°50' W 076°17'0 0.0
2018-Feb-19 04:00N 36°50' W 076°17'0 0.0
2018-Feb-19 03:30N 36°50' W 076°17'0 0.0
2018-Feb-19 03:00N 36°50' W 076°17'0 0.0
2018-Feb-19 02:31N 36°50' W 076°17'1 2.1
2018-Feb-19 02:00N 36°51' W 076°18'5 9.0
2018-Feb-19 01:28N 36°56' W 076°20'0 0.5
2018-Feb-19 00:51N 36°56' W 076°20'0 1.0
2018-Feb-19 00:27N 36°56' W 076°20'3 5.4
2018-Feb-18 23:57N 36°59' W 076°20'0 0.8
2018-Feb-18 23:26N 36°59' W 076°20'3 7.4
2018-Feb-18 22:58N 37°00' W 076°16'3 6.9
2018-Feb-18 22:30N 37°00' W 076°12'6 6.3
2018-Feb-18 21:31N 37°06' W 076°10'5 9.7
2018-Feb-18 20:57N 37°12' W 076°10'96 8.9
2018-Feb-18 10:11N 38°47' W 076°27'1 8.6
2018-Feb-18 10:01N 38°48' W 076°26'4 8.6
2018-Feb-18 09:30N 38°53' W 076°25'4 7.6
2018-Feb-18 09:01N 38°56' W 076°24'4 7.7
2018-Feb-18 08:30N 38°60' W 076°23'23 9.1
2018-Feb-18 05:59N 39°21' W 076°11'5 9.9
2018-Feb-18 05:30N 39°23' W 076°05'5 9.2
2018-Feb-18 05:00N 39°26' W 076°01'5 8.7
2018-Feb-18 04:29N 39°29' W 075°57'4 7.8
2018-Feb-18 04:00N 39°31' W 075°53'4 7.1
2018-Feb-18 03:30N 39°32' W 075°48'4 7.1
2018-Feb-18 03:00N 39°33' W 075°44'3 6.8
2018-Feb-18 02:31N 39°33' W 075°39'3 7.0
2018-Feb-18 02:01N 39°34' W 075°35'2 4.8
2018-Feb-18 01:31N 39°36' W 075°34'4 7.4
2018-Feb-18 01:00N 39°39' W 075°33'5 9.0
2018-Feb-18 00:31N 39°44' W 075°30'4 9.0
2018-Feb-18 00:00N 39°47' W 075°27'5 9.4
2018-Feb-17 23:30N 39°50' W 075°22'510.0
2018-Feb-17 23:01N 39°51' W 075°16'5 9.5
2018-Feb-17 22:31N 39°53' W 075°10'2 4.0
2018-Feb-17 22:00N 39°54' W 075°08'0 0.3
2018-Feb-17 21:31N 39°54' W 075°08'0 0.0
2018-Feb-17 21:00N 39°54' W 075°08'0 0.0
2018-Feb-17 20:31N 39°54' W 075°08'0 0.0
2018-Feb-17 20:00N 39°54' W 075°08'0 0.0
2018-Feb-17 19:30N 39°54' W 075°08'0 0.0
2018-Feb-17 19:01N 39°54' W 075°08'0 0.0
2018-Feb-17 18:30N 39°54' W 075°08'0 0.0
2018-Feb-17 18:01N 39°54' W 075°08'0 0.0
2018-Feb-17 17:31N 39°54' W 075°08'0 0.4
2018-Feb-17 17:01N 39°54' W 075°08'2 4.0
2018-Feb-17 16:31N 39°53' W 075°10'4 8.1
2018-Feb-17 16:00N 39°51' W 075°15'4 8.3
2018-Feb-17 15:31N 39°51' W 075°20'5 9.3
2018-Feb-17 15:01N 39°48' W 075°25'4 8.9
2018-Feb-17 14:30N 39°45' W 075°29'4 8.6
2018-Feb-17 14:00N 39°41' W 075°31'4 8.2
2018-Feb-17 13:30N 39°38' W 075°34'4 7.9
2018-Feb-17 13:01N 39°34' W 075°33'4 8.0
2018-Feb-17 12:30N 39°33' W 075°38'4 8.4
2018-Feb-17 12:00N 39°33' W 075°43'36 7.7
2018-Feb-17 07:24N 39°10' W 076°19'3 7.0
2018-Feb-17 07:00N 39°10' W 076°22'4 8.5
2018-Feb-17 06:30N 39°11' W 076°27'4 8.6
2018-Feb-17 06:00N 39°13' W 076°32'2 4.4
2018-Feb-17 05:30N 39°15' W 076°33'0 0.1
2018-Feb-17 05:01N 39°15' W 076°33'0 0.0
2018-Feb-17 04:31N 39°15' W 076°33'0 0.0
2018-Feb-17 04:00N 39°15' W 076°33'0 0.0
2018-Feb-17 03:31N 39°15' W 076°33'0 0.0
2018-Feb-17 03:00N 39°15' W 076°33'0 0.0
2018-Feb-17 02:30N 39°15' W 076°33'0 0.0
2018-Feb-17 02:00N 39°15' W 076°33'0 0.0
2018-Feb-17 01:30N 39°15' W 076°33'0 0.0
2018-Feb-17 01:01N 39°15' W 076°33'0 0.2
2018-Feb-17 00:31N 39°15' W 076°33'0 0.2
2018-Feb-17 00:00N 39°15' W 076°33'0 0.0
2018-Feb-16 23:30N 39°15' W 076°33'0 0.0
2018-Feb-16 23:00N 39°15' W 076°33'0 0.0
2018-Feb-16 22:31N 39°15' W 076°33'0 0.0
2018-Feb-16 22:01N 39°15' W 076°33'0 0.0
2018-Feb-16 21:31N 39°15' W 076°33'0 0.0
2018-Feb-16 21:01N 39°15' W 076°33'0 0.0
2018-Feb-16 20:31N 39°15' W 076°33'0 0.0
2018-Feb-16 20:01N 39°15' W 076°33'0 0.0
2018-Feb-16 19:31N 39°15' W 076°33'0 0.0
2018-Feb-16 19:00N 39°15' W 076°33'0 0.0
2018-Feb-16 18:31N 39°15' W 076°33'0 0.0
2018-Feb-16 18:01N 39°15' W 076°33'0 0.0
2018-Feb-16 17:31N 39°15' W 076°33'0 0.0
2018-Feb-16 17:01N 39°15' W 076°33'0 0.0
2018-Feb-16 16:31N 39°15' W 076°33'0 0.0
2018-Feb-16 16:00N 39°15' W 076°33'0 0.0
2018-Feb-16 15:31N 39°15' W 076°33'0 0.0
2018-Feb-16 15:01N 39°15' W 076°33'0 0.0
2018-Feb-16 14:30N 39°15' W 076°33'0 0.0
2018-Feb-16 14:01N 39°15' W 076°33'0 0.0
2018-Feb-16 13:31N 39°15' W 076°33'0 0.0
2018-Feb-16 13:01N 39°15' W 076°33'0 0.0
2018-Feb-16 12:31N 39°15' W 076°33'0 0.0
2018-Feb-16 12:00N 39°15' W 076°33'0 0.0
2018-Feb-16 11:29N 39°15' W 076°33'0 0.0
2018-Feb-16 11:01N 39°15' W 076°33'0 0.0
2018-Feb-16 10:30N 39°15' W 076°33'0 0.0
2018-Feb-16 10:01N 39°15' W 076°33'0 0.0
2018-Feb-16 09:31N 39°15' W 076°33'0 0.0
2018-Feb-16 09:01N 39°15' W 076°33'0 0.0
2018-Feb-16 08:30N 39°15' W 076°33'0 0.0
2018-Feb-16 08:01N 39°15' W 076°33'0 0.0
2018-Feb-16 07:30N 39°15' W 076°33'0 0.0
2018-Feb-16 07:01N 39°15' W 076°33'0 0.0
2018-Feb-16 06:30N 39°15' W 076°33'0 0.0
2018-Feb-16 06:01N 39°15' W 076°33'0 0.0
2018-Feb-16 05:30N 39°15' W 076°33'0 0.0
2018-Feb-16 05:01N 39°15' W 076°33'0 0.0
2018-Feb-16 04:31N 39°15' W 076°33'0 0.0
2018-Feb-16 04:00N 39°15' W 076°33'0 0.2
2018-Feb-16 03:31N 39°15' W 076°33'0 0.2
2018-Feb-16 03:00N 39°15' W 076°33'0 0.0
2018-Feb-16 02:30N 39°15' W 076°33'0 0.0
2018-Feb-16 02:01N 39°15' W 076°33'0 0.0
2018-Feb-16 01:31N 39°15' W 076°33'0 0.0
2018-Feb-16 01:01N 39°15' W 076°33'0 0.0
2018-Feb-16 00:31N 39°15' W 076°33'0 0.0
2018-Feb-16 00:00N 39°15' W 076°33'1 2.3
2018-Feb-15 23:30N 39°14' W 076°33'4 8.0
2018-Feb-15 23:00N 39°12' W 076°29'13 6.6
2018-Feb-15 21:04N 38°60' W 076°23'8 8.3
2018-Feb-15 20:07N 38°52' W 076°25'1 8.1
2018-Feb-15 20:01N 38°51' W 076°25'  

Dump ship's entire track history